sensor_id;sensor_type;location;lat;lon;timestamp;temperature;humidity
15879;DHT22;61999;51.514;14.614;2023-04-24T00:01:42;6.40;59.60
15879;DHT22;61999;51.514;14.614;2023-04-24T00:04:10;6.40;61.20
15879;DHT22;61999;51.514;14.614;2023-04-24T00:06:40;6.30;61.10
15879;DHT22;61999;51.514;14.614;2023-04-24T00:09:09;6.30;60.60
15879;DHT22;61999;51.514;14.614;2023-04-24T00:11:37;6.30;60.10
15879;DHT22;61999;51.514;14.614;2023-04-24T00:14:05;6.30;60.60
15879;DHT22;61999;51.514;14.614;2023-04-24T00:16:33;6.20;60.10
15879;DHT22;61999;51.514;14.614;2023-04-24T00:19:03;6.30;60.00
15879;DHT22;61999;51.514;14.614;2023-04-24T00:21:32;6.20;60.40
15879;DHT22;61999;51.514;14.614;2023-04-24T00:24:00;6.20;62.70
15879;DHT22;61999;51.514;14.614;2023-04-24T00:26:28;6.10;65.70
15879;DHT22;61999;51.514;14.614;2023-04-24T00:28:56;6.10;64.90
15879;DHT22;61999;51.514;14.614;2023-04-24T00:31:24;6.10;63.30
15879;DHT22;61999;51.514;14.614;2023-04-24T00:33:52;6.10;64.90
15879;DHT22;61999;51.514;14.614;2023-04-24T00:36:21;6.00;65.00
15879;DHT22;61999;51.514;14.614;2023-04-24T00:38:49;6.00;65.40
15879;DHT22;61999;51.514;14.614;2023-04-24T00:41:17;6.00;65.80
15879;DHT22;61999;51.514;14.614;2023-04-24T00:43:45;6.00;65.40
15879;DHT22;61999;51.514;14.614;2023-04-24T00:46:13;5.90;66.30
15879;DHT22;61999;51.514;14.614;2023-04-24T00:48:42;6.00;65.80
15879;DHT22;61999;51.514;14.614;2023-04-24T00:51:11;5.90;67.10
15879;DHT22;61999;51.514;14.614;2023-04-24T00:53:41;5.80;67.30
15879;DHT22;61999;51.514;14.614;2023-04-24T00:56:09;5.80;67.80
15879;DHT22;61999;51.514;14.614;2023-04-24T00:58:37;5.80;67.90
15879;DHT22;61999;51.514;14.614;2023-04-24T01:01:06;5.80;67.30
15879;DHT22;61999;51.514;14.614;2023-04-24T01:03:34;5.80;66.90
15879;DHT22;61999;51.514;14.614;2023-04-24T01:06:05;5.80;66.20
15879;DHT22;61999;51.514;14.614;2023-04-24T01:08:34;5.80;66.30
15879;DHT22;61999;51.514;14.614;2023-04-24T01:11:05;5.70;67.50
15879;DHT22;61999;51.514;14.614;2023-04-24T01:13:34;5.70;67.50
15879;DHT22;61999;51.514;14.614;2023-04-24T01:16:02;5.60;69.40
15879;DHT22;61999;51.514;14.614;2023-04-24T01:18:30;5.50;69.00
15879;DHT22;61999;51.514;14.614;2023-04-24T01:20:59;5.50;69.40
15879;DHT22;61999;51.514;14.614;2023-04-24T01:23:32;5.50;69.40
15879;DHT22;61999;51.514;14.614;2023-04-24T01:26:00;5.50;68.70
15879;DHT22;61999;51.514;14.614;2023-04-24T01:28:29;5.50;68.40
15879;DHT22;61999;51.514;14.614;2023-04-24T01:30:57;5.60;68.00
15879;DHT22;61999;51.514;14.614;2023-04-24T01:33:26;5.50;66.70
15879;DHT22;61999;51.514;14.614;2023-04-24T01:35:54;5.60;66.00
15879;DHT22;61999;51.514;14.614;2023-04-24T01:38:22;5.60;65.50
15879;DHT22;61999;51.514;14.614;2023-04-24T01:40:52;5.60;65.00
15879;DHT22;61999;51.514;14.614;2023-04-24T01:43:20;5.60;64.70
15879;DHT22;61999;51.514;14.614;2023-04-24T01:45:49;5.60;64.20
15879;DHT22;61999;51.514;14.614;2023-04-24T01:48:17;5.60;63.90
15879;DHT22;61999;51.514;14.614;2023-04-24T01:50:45;5.60;63.80
15879;DHT22;61999;51.514;14.614;2023-04-24T01:53:13;5.50;63.70
15879;DHT22;61999;51.514;14.614;2023-04-24T01:55:42;5.50;63.50
15879;DHT22;61999;51.514;14.614;2023-04-24T01:58:11;5.50;63.50
15879;DHT22;61999;51.514;14.614;2023-04-24T02:00:39;5.50;63.30
15879;DHT22;61999;51.514;14.614;2023-04-24T02:03:07;5.50;63.40
15879;DHT22;61999;51.514;14.614;2023-04-24T02:05:35;5.40;63.20
15879;DHT22;61999;51.514;14.614;2023-04-24T02:08:03;5.40;63.20
15879;DHT22;61999;51.514;14.614;2023-04-24T02:10:31;5.40;63.10
15879;DHT22;61999;51.514;14.614;2023-04-24T02:12:59;5.40;63.10
15879;DHT22;61999;51.514;14.614;2023-04-24T02:15:28;5.30;63.00
15879;DHT22;61999;51.514;14.614;2023-04-24T02:17:56;5.30;63.20
15879;DHT22;61999;51.514;14.614;2023-04-24T02:20:25;5.30;63.50
15879;DHT22;61999;51.514;14.614;2023-04-24T02:22:53;5.30;63.30
15879;DHT22;61999;51.514;14.614;2023-04-24T02:25:21;5.30;63.30
15879;DHT22;61999;51.514;14.614;2023-04-24T02:27:50;5.20;63.10
15879;DHT22;61999;51.514;14.614;2023-04-24T02:30:17;5.20;63.00
15879;DHT22;61999;51.514;14.614;2023-04-24T02:32:47;5.20;63.00
15879;DHT22;61999;51.514;14.614;2023-04-24T02:35:15;5.20;63.00
15879;DHT22;61999;51.514;14.614;2023-04-24T02:37:44;5.20;63.00
15879;DHT22;61999;51.514;14.614;2023-04-24T02:40:12;5.10;63.00
15879;DHT22;61999;51.514;14.614;2023-04-24T02:42:41;5.10;63.00
15879;DHT22;61999;51.514;14.614;2023-04-24T02:45:10;5.10;63.00
15879;DHT22;61999;51.514;14.614;2023-04-24T02:47:38;5.10;63.00
15879;DHT22;61999;51.514;14.614;2023-04-24T02:50:08;5.10;62.90
15879;DHT22;61999;51.514;14.614;2023-04-24T02:52:36;5.10;62.90
15879;DHT22;61999;51.514;14.614;2023-04-24T02:55:05;5.00;62.90
15879;DHT22;61999;51.514;14.614;2023-04-24T02:57:34;5.00;62.90
15879;DHT22;61999;51.514;14.614;2023-04-24T03:00:03;5.00;62.90
15879;DHT22;61999;51.514;14.614;2023-04-24T03:02:33;5.00;62.90
15879;DHT22;61999;51.514;14.614;2023-04-24T03:05:01;5.00;62.90
15879;DHT22;61999;51.514;14.614;2023-04-24T03:07:32;5.00;62.90
15879;DHT22;61999;51.514;14.614;2023-04-24T03:10:00;5.00;63.20
15879;DHT22;61999;51.514;14.614;2023-04-24T03:12:28;5.00;63.30
15879;DHT22;61999;51.514;14.614;2023-04-24T03:14:56;5.00;63.40
15879;DHT22;61999;51.514;14.614;2023-04-24T03:17:24;5.00;63.50
15879;DHT22;61999;51.514;14.614;2023-04-24T03:19:52;5.00;63.50
15879;DHT22;61999;51.514;14.614;2023-04-24T03:22:20;5.00;63.70
15879;DHT22;61999;51.514;14.614;2023-04-24T03:24:49;5.10;63.70
15879;DHT22;61999;51.514;14.614;2023-04-24T03:27:17;5.10;63.70
15879;DHT22;61999;51.514;14.614;2023-04-24T03:29:45;5.10;63.80
15879;DHT22;61999;51.514;14.614;2023-04-24T03:32:13;5.10;63.80
15879;DHT22;61999;51.514;14.614;2023-04-24T03:34:41;5.20;63.80
15879;DHT22;61999;51.514;14.614;2023-04-24T03:37:09;5.20;63.90
15879;DHT22;61999;51.514;14.614;2023-04-24T03:39:37;5.20;63.90
15879;DHT22;61999;51.514;14.614;2023-04-24T03:42:06;5.30;63.90
15879;DHT22;61999;51.514;14.614;2023-04-24T03:44:35;5.30;63.90
15879;DHT22;61999;51.514;14.614;2023-04-24T03:47:03;5.30;63.90
15879;DHT22;61999;51.514;14.614;2023-04-24T03:49:31;5.40;64.00
15879;DHT22;61999;51.514;14.614;2023-04-24T03:51:59;5.50;66.10
15879;DHT22;61999;51.514;14.614;2023-04-24T03:54:26;5.60;65.70
15879;DHT22;61999;51.514;14.614;2023-04-24T03:56:55;6.20;67.50
15879;DHT22;61999;51.514;14.614;2023-04-24T03:59:24;6.40;67.20
15879;DHT22;61999;51.514;14.614;2023-04-24T04:01:52;6.60;67.10
15879;DHT22;61999;51.514;14.614;2023-04-24T04:04:20;6.70;66.70
15879;DHT22;61999;51.514;14.614;2023-04-24T04:06:48;6.70;66.40
15879;DHT22;61999;51.514;14.614;2023-04-24T04:09:16;6.90;66.10
15879;DHT22;61999;51.514;14.614;2023-04-24T04:11:44;7.10;65.90
15879;DHT22;61999;51.514;14.614;2023-04-24T04:14:12;7.30;65.30
15879;DHT22;61999;51.514;14.614;2023-04-24T04:16:41;7.30;65.20
15879;DHT22;61999;51.514;14.614;2023-04-24T04:19:09;7.20;65.40
15879;DHT22;61999;51.514;14.614;2023-04-24T04:21:38;7.20;65.40
15879;DHT22;61999;51.514;14.614;2023-04-24T04:24:06;7.20;65.70
15879;DHT22;61999;51.514;14.614;2023-04-24T04:26:34;7.20;65.60
15879;DHT22;61999;51.514;14.614;2023-04-24T04:29:04;7.10;65.80
15879;DHT22;61999;51.514;14.614;2023-04-24T04:31:33;7.00;66.10
15879;DHT22;61999;51.514;14.614;2023-04-24T04:34:02;7.00;66.30
15879;DHT22;61999;51.514;14.614;2023-04-24T04:36:30;7.10;66.10
15879;DHT22;61999;51.514;14.614;2023-04-24T04:38:58;7.10;66.00
15879;DHT22;61999;51.514;14.614;2023-04-24T04:41:26;7.20;65.50
15879;DHT22;61999;51.514;14.614;2023-04-24T04:43:54;7.20;65.50
15879;DHT22;61999;51.514;14.614;2023-04-24T04:46:25;7.10;65.80
15879;DHT22;61999;51.514;14.614;2023-04-24T04:48:53;7.00;66.10
15879;DHT22;61999;51.514;14.614;2023-04-24T04:51:24;7.00;66.20
15879;DHT22;61999;51.514;14.614;2023-04-24T04:53:52;7.00;66.10
15879;DHT22;61999;51.514;14.614;2023-04-24T04:56:20;7.00;66.10
15879;DHT22;61999;51.514;14.614;2023-04-24T04:58:48;7.00;66.10
15879;DHT22;61999;51.514;14.614;2023-04-24T05:01:16;7.20;66.00
15879;DHT22;61999;51.514;14.614;2023-04-24T05:03:44;7.30;65.60
15879;DHT22;61999;51.514;14.614;2023-04-24T05:06:12;7.40;65.20
15879;DHT22;61999;51.514;14.614;2023-04-24T05:08:43;7.40;65.50
15879;DHT22;61999;51.514;14.614;2023-04-24T05:11:10;7.30;65.80
15879;DHT22;61999;51.514;14.614;2023-04-24T05:13:38;7.30;65.60
15879;DHT22;61999;51.514;14.614;2023-04-24T05:16:07;7.30;65.70
15879;DHT22;61999;51.514;14.614;2023-04-24T05:18:35;7.50;65.30
15879;DHT22;61999;51.514;14.614;2023-04-24T05:21:03;7.50;65.40
15879;DHT22;61999;51.514;14.614;2023-04-24T05:23:31;7.50;65.50
15879;DHT22;61999;51.514;14.614;2023-04-24T05:26:00;7.70;65.10
15879;DHT22;61999;51.514;14.614;2023-04-24T05:28:29;7.70;64.90
15879;DHT22;61999;51.514;14.614;2023-04-24T05:30:57;7.80;65.30
15879;DHT22;61999;51.514;14.614;2023-04-24T05:33:25;7.90;64.10
15879;DHT22;61999;51.514;14.614;2023-04-24T05:35:53;8.00;63.80
15879;DHT22;61999;51.514;14.614;2023-04-24T05:38:22;8.10;63.60
15879;DHT22;61999;51.514;14.614;2023-04-24T05:40:49;8.00;63.60
15879;DHT22;61999;51.514;14.614;2023-04-24T05:43:19;8.10;63.40
15879;DHT22;61999;51.514;14.614;2023-04-24T05:45:47;8.10;63.40
15879;DHT22;61999;51.514;14.614;2023-04-24T05:48:15;8.20;63.20
15879;DHT22;61999;51.514;14.614;2023-04-24T05:50:43;8.30;63.10
15879;DHT22;61999;51.514;14.614;2023-04-24T05:53:11;8.20;62.80
15879;DHT22;61999;51.514;14.614;2023-04-24T05:55:39;8.10;63.00
15879;DHT22;61999;51.514;14.614;2023-04-24T05:58:07;8.20;63.30
15879;DHT22;61999;51.514;14.614;2023-04-24T06:00:37;8.20;63.20
15879;DHT22;61999;51.514;14.614;2023-04-24T06:03:09;8.20;63.20
15879;DHT22;61999;51.514;14.614;2023-04-24T06:05:37;8.30;62.80
15879;DHT22;61999;51.514;14.614;2023-04-24T06:08:05;8.30;62.90
15879;DHT22;61999;51.514;14.614;2023-04-24T06:10:33;8.30;63.00
15879;DHT22;61999;51.514;14.614;2023-04-24T06:13:01;8.30;63.00
15879;DHT22;61999;51.514;14.614;2023-04-24T06:15:29;8.20;63.30
15879;DHT22;61999;51.514;14.614;2023-04-24T06:17:59;8.30;63.00
15879;DHT22;61999;51.514;14.614;2023-04-24T06:20:27;8.10;63.30
15879;DHT22;61999;51.514;14.614;2023-04-24T06:22:55;8.10;63.70
15879;DHT22;61999;51.514;14.614;2023-04-24T06:25:25;8.20;63.60
15879;DHT22;61999;51.514;14.614;2023-04-24T06:27:54;8.40;62.80
15879;DHT22;61999;51.514;14.614;2023-04-24T06:30:22;8.50;62.40
15879;DHT22;61999;51.514;14.614;2023-04-24T06:32:50;8.60;62.10
15879;DHT22;61999;51.514;14.614;2023-04-24T06:35:20;8.70;61.70
15879;DHT22;61999;51.514;14.614;2023-04-24T06:37:48;8.80;60.00
15879;DHT22;61999;51.514;14.614;2023-04-24T06:40:16;8.70;60.80
15879;DHT22;61999;51.514;14.614;2023-04-24T06:42:45;8.70;60.50
15879;DHT22;61999;51.514;14.614;2023-04-24T06:45:13;8.80;59.40
15879;DHT22;61999;51.514;14.614;2023-04-24T06:47:41;8.80;59.20
15879;DHT22;61999;51.514;14.614;2023-04-24T06:50:09;9.00;58.20
15879;DHT22;61999;51.514;14.614;2023-04-24T06:52:40;9.10;57.60
15879;DHT22;61999;51.514;14.614;2023-04-24T06:55:08;9.00;57.30
15879;DHT22;61999;51.514;14.614;2023-04-24T06:57:37;9.10;57.20
15879;DHT22;61999;51.514;14.614;2023-04-24T07:00:06;9.10;57.20
15879;DHT22;61999;51.514;14.614;2023-04-24T07:02:35;9.10;57.00
15879;DHT22;61999;51.514;14.614;2023-04-24T07:05:04;9.10;57.20
15879;DHT22;61999;51.514;14.614;2023-04-24T07:07:33;8.80;58.20
15879;DHT22;61999;51.514;14.614;2023-04-24T07:10:06;9.10;57.50
15879;DHT22;61999;51.514;14.614;2023-04-24T07:12:35;9.20;57.70
15879;DHT22;61999;51.514;14.614;2023-04-24T07:15:05;9.20;57.80
15879;DHT22;61999;51.514;14.614;2023-04-24T07:17:34;9.60;56.10
15879;DHT22;61999;51.514;14.614;2023-04-24T07:20:02;9.70;55.70
15879;DHT22;61999;51.514;14.614;2023-04-24T07:22:32;9.80;55.60
15879;DHT22;61999;51.514;14.614;2023-04-24T07:24:59;9.90;55.60
15879;DHT22;61999;51.514;14.614;2023-04-24T07:27:29;9.80;56.10
15879;DHT22;61999;51.514;14.614;2023-04-24T07:29:57;9.80;56.30
15879;DHT22;61999;51.514;14.614;2023-04-24T07:32:25;10.00;54.70
15879;DHT22;61999;51.514;14.614;2023-04-24T07:34:53;10.10;55.00
15879;DHT22;61999;51.514;14.614;2023-04-24T07:37:22;10.20;54.60
15879;DHT22;61999;51.514;14.614;2023-04-24T07:39:50;10.20;54.60
15879;DHT22;61999;51.514;14.614;2023-04-24T07:42:18;10.60;52.90
15879;DHT22;61999;51.514;14.614;2023-04-24T07:44:48;10.70;52.60
15879;DHT22;61999;51.514;14.614;2023-04-24T07:47:16;10.60;53.00
15879;DHT22;61999;51.514;14.614;2023-04-24T07:49:43;10.60;52.50
15879;DHT22;61999;51.514;14.614;2023-04-24T07:52:11;10.50;52.80
15879;DHT22;61999;51.514;14.614;2023-04-24T07:54:39;10.40;53.50
15879;DHT22;61999;51.514;14.614;2023-04-24T07:57:07;10.20;52.80
15879;DHT22;61999;51.514;14.614;2023-04-24T07:59:35;10.00;53.30
15879;DHT22;61999;51.514;14.614;2023-04-24T08:02:05;9.80;54.20
15879;DHT22;61999;51.514;14.614;2023-04-24T08:04:33;9.80;54.00
15879;DHT22;61999;51.514;14.614;2023-04-24T08:07:01;9.60;55.00
15879;DHT22;61999;51.514;14.614;2023-04-24T08:09:29;9.70;54.70
15879;DHT22;61999;51.514;14.614;2023-04-24T08:11:57;9.90;54.30
15879;DHT22;61999;51.514;14.614;2023-04-24T08:14:25;10.00;53.70
15879;DHT22;61999;51.514;14.614;2023-04-24T08:16:54;9.90;53.80
15879;DHT22;61999;51.514;14.614;2023-04-24T08:19:24;9.80;54.30
15879;DHT22;61999;51.514;14.614;2023-04-24T08:21:52;9.80;53.90
15879;DHT22;61999;51.514;14.614;2023-04-24T08:24:20;9.80;54.20
15879;DHT22;61999;51.514;14.614;2023-04-24T08:26:49;9.80;54.20
15879;DHT22;61999;51.514;14.614;2023-04-24T08:29:18;9.80;54.90
15879;DHT22;61999;51.514;14.614;2023-04-24T08:31:46;9.90;54.60
15879;DHT22;61999;51.514;14.614;2023-04-24T08:34:14;10.20;53.70
15879;DHT22;61999;51.514;14.614;2023-04-24T08:36:43;10.10;53.80
15879;DHT22;61999;51.514;14.614;2023-04-24T08:39:12;9.90;54.50
15879;DHT22;61999;51.514;14.614;2023-04-24T08:41:42;10.10;54.10
15879;DHT22;61999;51.514;14.614;2023-04-24T08:44:14;10.20;54.00
15879;DHT22;61999;51.514;14.614;2023-04-24T08:46:43;10.20;54.00
15879;DHT22;61999;51.514;14.614;2023-04-24T08:49:48;10.30;53.50
15879;DHT22;61999;51.514;14.614;2023-04-24T08:52:19;10.20;54.40
15879;DHT22;61999;51.514;14.614;2023-04-24T08:54:48;10.10;54.80
15879;DHT22;61999;51.514;14.614;2023-04-24T08:57:17;10.00;55.50
15879;DHT22;61999;51.514;14.614;2023-04-24T08:59:46;10.30;54.10
15879;DHT22;61999;51.514;14.614;2023-04-24T09:02:16;10.70;53.30
15879;DHT22;61999;51.514;14.614;2023-04-24T09:04:46;10.90;52.70
15879;DHT22;61999;51.514;14.614;2023-04-24T09:07:16;10.80;52.70
15879;DHT22;61999;51.514;14.614;2023-04-24T09:09:45;11.00;52.90
15879;DHT22;61999;51.514;14.614;2023-04-24T09:12:14;11.10;51.90
15879;DHT22;61999;51.514;14.614;2023-04-24T09:14:42;11.10;51.90
15879;DHT22;61999;51.514;14.614;2023-04-24T09:17:11;10.90;52.40
15879;DHT22;61999;51.514;14.614;2023-04-24T09:19:40;11.00;51.90
15879;DHT22;61999;51.514;14.614;2023-04-24T09:22:09;11.20;51.60
15879;DHT22;61999;51.514;14.614;2023-04-24T09:24:38;11.20;51.50
15879;DHT22;61999;51.514;14.614;2023-04-24T09:27:11;11.40;50.80
15879;DHT22;61999;51.514;14.614;2023-04-24T09:29:45;11.20;51.30
15879;DHT22;61999;51.514;14.614;2023-04-24T09:32:22;11.40;50.80
15879;DHT22;61999;51.514;14.614;2023-04-24T09:35:06;11.50;51.10
15879;DHT22;61999;51.514;14.614;2023-04-24T09:37:36;11.80;49.60
15879;DHT22;61999;51.514;14.614;2023-04-24T09:40:10;11.90;48.90
15879;DHT22;61999;51.514;14.614;2023-04-24T09:42:52;11.70;51.00
15879;DHT22;61999;51.514;14.614;2023-04-24T09:45:22;11.70;50.80
15879;DHT22;61999;51.514;14.614;2023-04-24T09:47:55;11.90;50.60
15879;DHT22;61999;51.514;14.614;2023-04-24T09:50:23;12.10;51.30
15879;DHT22;61999;51.514;14.614;2023-04-24T09:52:57;12.60;50.10
15879;DHT22;61999;51.514;14.614;2023-04-24T09:55:26;13.00;48.30
15879;DHT22;61999;51.514;14.614;2023-04-24T09:57:57;13.30;47.70
15879;DHT22;61999;51.514;14.614;2023-04-24T10:00:28;13.50;47.10
15879;DHT22;61999;51.514;14.614;2023-04-24T10:02:58;13.40;47.90
15879;DHT22;61999;51.514;14.614;2023-04-24T10:05:28;13.50;47.50
15879;DHT22;61999;51.514;14.614;2023-04-24T10:08:03;13.60;47.10
15879;DHT22;61999;51.514;14.614;2023-04-24T10:10:33;13.60;46.50
15879;DHT22;61999;51.514;14.614;2023-04-24T10:13:07;13.90;45.60
15879;DHT22;61999;51.514;14.614;2023-04-24T10:15:36;13.80;45.80
15879;DHT22;61999;51.514;14.614;2023-04-24T10:18:05;13.60;46.00
15879;DHT22;61999;51.514;14.614;2023-04-24T10:20:36;13.20;46.80
15879;DHT22;61999;51.514;14.614;2023-04-24T10:23:05;13.00;47.50
15879;DHT22;61999;51.514;14.614;2023-04-24T10:25:35;12.80;47.40
15879;DHT22;61999;51.514;14.614;2023-04-24T10:28:03;12.20;51.30
15879;DHT22;61999;51.514;14.614;2023-04-24T10:30:35;11.60;52.90
15879;DHT22;61999;51.514;14.614;2023-04-24T10:33:04;11.20;53.50
15879;DHT22;61999;51.514;14.614;2023-04-24T10:35:37;10.80;55.60
15879;DHT22;61999;51.514;14.614;2023-04-24T10:38:11;10.10;58.70
15879;DHT22;61999;51.514;14.614;2023-04-24T10:40:42;9.70;60.50
15879;DHT22;61999;51.514;14.614;2023-04-24T10:43:17;9.30;62.30
15879;DHT22;61999;51.514;14.614;2023-04-24T10:46:01;8.80;64.50
15879;DHT22;61999;51.514;14.614;2023-04-24T10:48:30;8.60;62.90
15879;DHT22;61999;51.514;14.614;2023-04-24T10:50:59;8.40;62.20
15879;DHT22;61999;51.514;14.614;2023-04-24T10:53:28;8.40;64.20
15879;DHT22;61999;51.514;14.614;2023-04-24T10:55:59;8.40;64.70
15879;DHT22;61999;51.514;14.614;2023-04-24T10:58:40;8.50;65.60
15879;DHT22;61999;51.514;14.614;2023-04-24T11:01:23;8.60;64.70
15879;DHT22;61999;51.514;14.614;2023-04-24T11:03:55;8.80;66.30
15879;DHT22;61999;51.514;14.614;2023-04-24T11:06:31;8.90;65.20
15879;DHT22;61999;51.514;14.614;2023-04-24T11:09:03;9.00;66.10
15879;DHT22;61999;51.514;14.614;2023-04-24T11:11:34;9.20;65.30
15879;DHT22;61999;51.514;14.614;2023-04-24T11:14:08;9.60;64.00
15879;DHT22;61999;51.514;14.614;2023-04-24T11:16:42;9.70;63.70
15879;DHT22;61999;51.514;14.614;2023-04-24T11:19:21;9.70;62.30
15879;DHT22;61999;51.514;14.614;2023-04-24T11:21:57;10.00;62.20
15879;DHT22;61999;51.514;14.614;2023-04-24T11:24:30;10.30;61.20
15879;DHT22;61999;51.514;14.614;2023-04-24T11:27:05;10.60;59.40
15879;DHT22;61999;51.514;14.614;2023-04-24T11:29:47;10.60;59.70
15879;DHT22;61999;51.514;14.614;2023-04-24T11:32:24;10.40;60.40
15879;DHT22;61999;51.514;14.614;2023-04-24T11:34:55;10.50;59.80
15879;DHT22;61999;51.514;14.614;2023-04-24T11:37:28;10.40;60.40
15879;DHT22;61999;51.514;14.614;2023-04-24T11:40:00;10.60;59.40
15879;DHT22;61999;51.514;14.614;2023-04-24T11:42:34;10.70;56.70
15879;DHT22;61999;51.514;14.614;2023-04-24T11:45:07;10.50;58.00
15879;DHT22;61999;51.514;14.614;2023-04-24T11:47:37;10.30;58.40
15879;DHT22;61999;51.514;14.614;2023-04-24T11:50:07;10.30;57.90
15879;DHT22;61999;51.514;14.614;2023-04-24T11:52:39;10.30;57.80
15879;DHT22;61999;51.514;14.614;2023-04-24T11:55:23;10.30;58.20
15879;DHT22;61999;51.514;14.614;2023-04-24T11:57:55;10.30;58.90
15879;DHT22;61999;51.514;14.614;2023-04-24T12:00:27;10.40;59.80
15879;DHT22;61999;51.514;14.614;2023-04-24T12:03:04;10.50;60.60
15879;DHT22;61999;51.514;14.614;2023-04-24T12:05:34;10.60;59.60
15879;DHT22;61999;51.514;14.614;2023-04-24T12:08:03;10.70;59.60
15879;DHT22;61999;51.514;14.614;2023-04-24T12:10:32;10.80;59.50
15879;DHT22;61999;51.514;14.614;2023-04-24T12:13:01;10.90;59.90
15879;DHT22;61999;51.514;14.614;2023-04-24T12:15:30;11.10;58.20
15879;DHT22;61999;51.514;14.614;2023-04-24T12:17:58;11.30;57.30
15879;DHT22;61999;51.514;14.614;2023-04-24T12:20:28;11.30;57.00
15879;DHT22;61999;51.514;14.614;2023-04-24T12:22:58;11.50;56.00
15879;DHT22;61999;51.514;14.614;2023-04-24T12:25:28;11.50;56.20
15879;DHT22;61999;51.514;14.614;2023-04-24T12:28:09;11.60;55.90
15879;DHT22;61999;51.514;14.614;2023-04-24T12:30:42;11.70;55.40
15879;DHT22;61999;51.514;14.614;2023-04-24T12:33:11;11.90;55.70
15879;DHT22;61999;51.514;14.614;2023-04-24T12:35:40;12.00;55.30
15879;DHT22;61999;51.514;14.614;2023-04-24T12:38:10;12.20;55.10
15879;DHT22;61999;51.514;14.614;2023-04-24T12:40:39;12.50;53.90
15879;DHT22;61999;51.514;14.614;2023-04-24T12:43:13;12.70;53.70
15879;DHT22;61999;51.514;14.614;2023-04-24T12:45:44;13.00;52.90
15879;DHT22;61999;51.514;14.614;2023-04-24T12:48:13;13.30;52.10
15879;DHT22;61999;51.514;14.614;2023-04-24T12:50:41;13.40;53.30
15879;DHT22;61999;51.514;14.614;2023-04-24T12:53:11;13.50;52.40
15879;DHT22;61999;51.514;14.614;2023-04-24T12:55:39;13.90;51.20
15879;DHT22;61999;51.514;14.614;2023-04-24T12:58:07;14.10;49.60
15879;DHT22;61999;51.514;14.614;2023-04-24T13:00:36;13.90;50.50
15879;DHT22;61999;51.514;14.614;2023-04-24T13:03:05;14.00;49.10
15879;DHT22;61999;51.514;14.614;2023-04-24T13:05:33;14.10;48.90
15879;DHT22;61999;51.514;14.614;2023-04-24T13:08:01;14.20;48.30
15879;DHT22;61999;51.514;14.614;2023-04-24T13:10:29;14.20;47.80
15879;DHT22;61999;51.514;14.614;2023-04-24T13:12:58;14.20;47.60
15879;DHT22;61999;51.514;14.614;2023-04-24T13:15:26;14.10;46.80
15879;DHT22;61999;51.514;14.614;2023-04-24T13:17:54;14.20;46.30
15879;DHT22;61999;51.514;14.614;2023-04-24T13:20:23;13.90;44.60
15879;DHT22;61999;51.514;14.614;2023-04-24T13:22:51;13.70;44.40
15879;DHT22;61999;51.514;14.614;2023-04-24T13:25:19;13.40;44.60
15879;DHT22;61999;51.514;14.614;2023-04-24T13:27:49;13.30;44.40
15879;DHT22;61999;51.514;14.614;2023-04-24T13:30:17;12.70;50.00
15879;DHT22;61999;51.514;14.614;2023-04-24T13:32:45;10.90;55.70
15879;DHT22;61999;51.514;14.614;2023-04-24T13:35:13;9.70;60.90
15879;DHT22;61999;51.514;14.614;2023-04-24T13:37:42;9.20;63.00
15879;DHT22;61999;51.514;14.614;2023-04-24T13:40:11;8.80;62.50
15879;DHT22;61999;51.514;14.614;2023-04-24T13:42:40;8.70;62.80
15879;DHT22;61999;51.514;14.614;2023-04-24T13:45:09;8.50;63.30
15879;DHT22;61999;51.514;14.614;2023-04-24T13:47:43;8.50;64.70
15879;DHT22;61999;51.514;14.614;2023-04-24T13:50:11;8.80;62.70
15879;DHT22;61999;51.514;14.614;2023-04-24T13:52:39;8.90;63.00
15879;DHT22;61999;51.514;14.614;2023-04-24T13:55:09;9.10;63.80
15879;DHT22;61999;51.514;14.614;2023-04-24T13:57:37;9.30;63.80
15879;DHT22;61999;51.514;14.614;2023-04-24T14:00:06;9.60;61.80
15879;DHT22;61999;51.514;14.614;2023-04-24T14:02:36;10.00;59.50
15879;DHT22;61999;51.514;14.614;2023-04-24T14:05:05;10.50;56.80
15879;DHT22;61999;51.514;14.614;2023-04-24T14:07:34;10.70;56.10
15879;DHT22;61999;51.514;14.614;2023-04-24T14:10:02;10.50;56.50
15879;DHT22;61999;51.514;14.614;2023-04-24T14:12:31;10.40;54.70
15879;DHT22;61999;51.514;14.614;2023-04-24T14:14:59;10.30;53.60
15879;DHT22;61999;51.514;14.614;2023-04-24T14:17:28;10.20;53.60
15879;DHT22;61999;51.514;14.614;2023-04-24T14:19:56;9.90;55.40
15879;DHT22;61999;51.514;14.614;2023-04-24T14:22:26;9.90;54.50
15879;DHT22;61999;51.514;14.614;2023-04-24T14:24:54;10.00;53.80
15879;DHT22;61999;51.514;14.614;2023-04-24T14:27:22;10.20;53.00
15879;DHT22;61999;51.514;14.614;2023-04-24T14:29:51;10.30;52.40
15879;DHT22;61999;51.514;14.614;2023-04-24T14:32:20;10.50;52.80
15879;DHT22;61999;51.514;14.614;2023-04-24T14:34:48;10.70;52.30
15879;DHT22;61999;51.514;14.614;2023-04-24T14:37:16;11.00;51.70
15879;DHT22;61999;51.514;14.614;2023-04-24T14:39:44;11.20;51.80
15879;DHT22;61999;51.514;14.614;2023-04-24T14:42:15;11.30;51.40
15879;DHT22;61999;51.514;14.614;2023-04-24T14:44:44;11.30;52.50
15879;DHT22;61999;51.514;14.614;2023-04-24T14:47:13;11.60;52.20
15879;DHT22;61999;51.514;14.614;2023-04-24T14:49:43;11.80;51.30
15879;DHT22;61999;51.514;14.614;2023-04-24T14:52:11;11.90;51.00
15879;DHT22;61999;51.514;14.614;2023-04-24T14:54:39;11.90;51.00
15879;DHT22;61999;51.514;14.614;2023-04-24T14:57:07;12.00;50.70
15879;DHT22;61999;51.514;14.614;2023-04-24T14:59:36;12.00;49.90
15879;DHT22;61999;51.514;14.614;2023-04-24T15:02:04;12.10;49.80
15879;DHT22;61999;51.514;14.614;2023-04-24T15:04:42;12.00;49.00
15879;DHT22;61999;51.514;14.614;2023-04-24T15:07:10;11.80;49.60
15879;DHT22;61999;51.514;14.614;2023-04-24T15:09:38;11.90;48.40
15879;DHT22;61999;51.514;14.614;2023-04-24T15:12:06;11.90;46.80
15879;DHT22;61999;51.514;14.614;2023-04-24T15:14:34;11.80;46.30
15879;DHT22;61999;51.514;14.614;2023-04-24T15:17:02;11.70;45.90
15879;DHT22;61999;51.514;14.614;2023-04-24T15:19:31;11.60;45.80
15879;DHT22;61999;51.514;14.614;2023-04-24T15:22:00;11.60;45.10
15879;DHT22;61999;51.514;14.614;2023-04-24T15:24:28;11.50;44.30
15879;DHT22;61999;51.514;14.614;2023-04-24T15:26:56;11.20;45.00
15879;DHT22;61999;51.514;14.614;2023-04-24T15:29:25;11.20;44.10
15879;DHT22;61999;51.514;14.614;2023-04-24T15:31:54;11.20;43.50
15879;DHT22;61999;51.514;14.614;2023-04-24T15:34:22;11.40;41.00
15879;DHT22;61999;51.514;14.614;2023-04-24T15:36:49;11.30;41.50
15879;DHT22;61999;51.514;14.614;2023-04-24T15:39:22;11.40;41.50